createdAt,value
2017-10-20T00:01:28.890Z,11.50
2017-10-20T00:03:56.396Z,11.50
2017-10-20T00:06:23.898Z,11.50
2017-10-20T00:08:51.411Z,11.50
2017-10-20T00:11:18.908Z,11.40
2017-10-20T00:13:46.419Z,11.50
2017-10-20T00:16:13.909Z,11.50
2017-10-20T00:18:41.819Z,11.40
2017-10-20T00:21:09.308Z,11.40
2017-10-20T00:23:36.824Z,11.40
2017-10-20T00:26:04.307Z,11.50
2017-10-20T00:28:31.818Z,11.50
2017-10-20T00:30:59.313Z,11.50
2017-10-20T00:33:26.826Z,11.50
2017-10-20T00:35:54.707Z,11.40
2017-10-20T00:38:24.131Z,11.40
2017-10-20T00:40:51.623Z,11.40
2017-10-20T00:43:19.139Z,11.40
2017-10-20T00:45:46.635Z,11.40
2017-10-20T00:48:15.060Z,11.50
2017-10-20T00:50:42.563Z,11.60
2017-10-20T00:53:10.064Z,11.60
2017-10-20T00:55:37.969Z,11.60
2017-10-20T00:58:05.463Z,11.60
2017-10-20T01:00:32.977Z,11.60
2017-10-20T01:03:00.463Z,11.50
2017-10-20T01:05:27.976Z,11.50
2017-10-20T01:07:55.480Z,11.50
2017-10-20T01:10:22.976Z,11.60
2017-10-20T01:12:52.811Z,11.60
2017-10-20T01:15:20.314Z,11.60
2017-10-20T01:17:47.826Z,11.60
2017-10-20T01:20:15.315Z,11.60
2017-10-20T01:22:42.812Z,11.60
2017-10-20T01:25:10.743Z,11.70
2017-10-20T01:27:38.251Z,11.70
2017-10-20T01:30:06.139Z,11.70
2017-10-20T01:32:33.643Z,11.70
2017-10-20T01:35:01.136Z,11.60
2017-10-20T01:37:29.046Z,11.60
2017-10-20T01:39:56.550Z,11.60
2017-10-20T01:42:24.462Z,11.70
2017-10-20T01:44:51.955Z,11.70
2017-10-20T01:47:20.416Z,11.60
2017-10-20T01:49:47.923Z,11.60
2017-10-20T01:52:15.802Z,11.60
2017-10-20T01:54:43.314Z,11.60
2017-10-20T01:57:11.237Z,11.60
2017-10-20T01:59:38.756Z,11.60
2017-10-20T02:02:06.253Z,11.60
2017-10-20T02:04:33.763Z,11.50
2017-10-20T02:07:01.256Z,11.50
2017-10-20T02:09:29.167Z,11.40
2017-10-20T02:11:56.658Z,11.40
2017-10-20T02:14:24.168Z,11.40
2017-10-20T02:16:52.600Z,11.40
2017-10-20T02:19:20.092Z,11.40
2017-10-20T02:21:47.670Z,11.40
2017-10-20T02:24:16.092Z,11.40
2017-10-20T02:26:43.604Z,11.40
2017-10-20T02:29:11.122Z,11.40
2017-10-20T02:31:39.032Z,11.40
2017-10-20T02:34:06.525Z,11.40
2017-10-20T02:36:34.057Z,11.40
2017-10-20T02:39:01.559Z,11.50
2017-10-20T02:41:29.442Z,11.50
2017-10-20T02:43:57.328Z,11.50
2017-10-20T02:46:24.851Z,11.60
2017-10-20T02:48:52.339Z,11.70
2017-10-20T02:51:21.788Z,11.70
2017-10-20T02:53:49.279Z,11.60
2017-10-20T02:56:17.163Z,11.60
2017-10-20T02:58:44.707Z,11.60
2017-10-20T03:01:12.601Z,11.50
2017-10-20T03:03:40.131Z,11.50
2017-10-20T03:06:08.043Z,11.50
2017-10-20T03:08:35.535Z,11.50
2017-10-20T03:11:03.156Z,11.50
2017-10-20T03:13:30.643Z,11.50
2017-10-20T03:15:58.169Z,11.50
2017-10-20T03:18:25.667Z,11.40
2017-10-20T03:20:53.151Z,11.30
2017-10-20T03:23:21.063Z,11.40
2017-10-20T03:25:49.504Z,11.40
2017-10-20T03:28:19.362Z,11.40
2017-10-20T03:30:46.869Z,11.40
2017-10-20T03:33:14.764Z,11.50
2017-10-20T03:35:42.278Z,11.40
2017-10-20T03:38:09.771Z,11.40
2017-10-20T03:40:37.276Z,11.40
2017-10-20T03:43:04.779Z,11.40
2017-10-20T03:45:32.679Z,11.40
2017-10-20T03:48:00.167Z,11.40
2017-10-20T03:50:27.686Z,11.40
2017-10-20T03:52:55.171Z,11.40
2017-10-20T03:55:22.680Z,11.40
2017-10-20T03:57:50.569Z,11.40
2017-10-20T04:00:18.096Z,11.40
2017-10-20T04:02:45.981Z,11.40
2017-10-20T04:05:13.483Z,11.40
2017-10-20T04:07:40.988Z,11.40
2017-10-20T04:10:08.908Z,11.40
2017-10-20T04:12:36.411Z,11.40
2017-10-20T04:15:04.295Z,11.50
2017-10-20T04:17:31.808Z,11.50
2017-10-20T04:19:59.295Z,11.40
2017-10-20T04:22:28.132Z,11.40
2017-10-20T04:24:55.635Z,11.40
2017-10-20T04:27:24.484Z,11.40
2017-10-20T04:29:51.987Z,11.40
2017-10-20T04:32:19.877Z,11.40
2017-10-20T04:34:47.383Z,11.40
2017-10-20T04:37:14.869Z,11.50
2017-10-20T04:39:42.779Z,11.50
2017-10-20T04:42:10.264Z,11.50
2017-10-20T04:44:37.772Z,11.50
2017-10-20T04:47:05.259Z,11.40
2017-10-20T04:49:32.768Z,11.50
2017-10-20T04:52:00.655Z,11.70
2017-10-20T04:54:28.163Z,11.70
2017-10-20T04:56:56.591Z,11.70
2017-10-20T04:59:24.095Z,11.70
2017-10-20T05:01:51.583Z,11.60
2017-10-20T05:04:19.488Z,11.50
2017-10-20T05:06:46.992Z,11.60
2017-10-20T05:09:14.499Z,11.50
2017-10-20T05:11:42.922Z,11.50
2017-10-20T05:14:10.427Z,11.50
2017-10-20T05:16:37.916Z,11.50
2017-10-20T05:19:08.192Z,11.50
2017-10-20T05:21:36.080Z,11.50
2017-10-20T05:24:03.607Z,11.50
2017-10-20T05:26:31.504Z,11.40
2017-10-20T05:28:58.993Z,11.40
2017-10-20T05:31:26.516Z,11.50
2017-10-20T05:33:53.999Z,11.50
2017-10-20T05:36:21.510Z,11.50
2017-10-20T05:38:49.400Z,11.50
2017-10-20T05:41:16.898Z,11.50
2017-10-20T05:43:44.415Z,11.50
2017-10-20T05:46:11.910Z,11.40
2017-10-20T05:48:39.412Z,11.40
2017-10-20T05:51:07.299Z,11.50
2017-10-20T05:53:34.845Z,11.50
2017-10-20T05:56:02.373Z,11.50
2017-10-20T05:58:29.887Z,11.50
2017-10-20T06:00:57.415Z,11.40
2017-10-20T06:03:25.303Z,11.50
2017-10-20T06:05:52.811Z,11.50
2017-10-20T06:08:20.317Z,11.50
2017-10-20T06:10:47.807Z,11.60
2017-10-20T06:13:15.345Z,11.60
2017-10-20T06:15:42.840Z,11.60
2017-10-20T06:18:12.293Z,11.60
2017-10-20T06:20:40.189Z,11.60
2017-10-20T06:23:09.618Z,11.60
2017-10-20T06:25:37.119Z,11.70
2017-10-20T06:28:05.040Z,11.70
2017-10-20T06:30:32.727Z,11.70
2017-10-20T06:33:02.181Z,11.70
2017-10-20T06:35:29.675Z,11.90
2017-10-20T06:37:57.195Z,11.90
2017-10-20T06:40:24.694Z,11.90
2017-10-20T06:42:52.200Z,12.00
2017-10-20T06:45:19.691Z,12.20
2017-10-20T06:47:47.200Z,12.30
2017-10-20T06:50:15.104Z,12.20
2017-10-20T06:52:42.592Z,12.20
2017-10-20T06:55:10.095Z,12.20
2017-10-20T06:57:37.592Z,12.10
2017-10-20T07:00:07.599Z,12.20
2017-10-20T07:02:35.104Z,12.10
2017-10-20T07:05:03.013Z,12.10
2017-10-20T07:07:32.206Z,12.10
2017-10-20T07:09:59.721Z,12.10
2017-10-20T07:12:27.210Z,12.20
2017-10-20T07:14:54.731Z,12.20
2017-10-20T07:17:22.251Z,12.20
2017-10-20T07:19:50.291Z,12.20
2017-10-20T07:22:17.778Z,12.30
2017-10-20T07:24:45.320Z,12.30
2017-10-20T07:27:13.007Z,12.40
2017-10-20T07:29:41.460Z,12.40
2017-10-20T07:32:08.951Z,12.40
2017-10-20T07:34:36.475Z,12.40
2017-10-20T07:37:03.980Z,12.50
2017-10-20T07:39:32.403Z,12.50
2017-10-20T07:42:00.295Z,12.50
2017-10-20T07:44:28.164Z,12.50
2017-10-20T07:46:56.196Z,12.50
2017-10-20T07:49:24.116Z,12.50
2017-10-20T07:51:51.644Z,12.60
2017-10-20T07:54:19.143Z,12.50
2017-10-20T07:56:46.638Z,12.60
2017-10-20T07:59:14.555Z,12.60
2017-10-20T08:01:43.005Z,12.70
2017-10-20T08:04:10.528Z,12.70
2017-10-20T08:06:38.016Z,12.80
2017-10-20T08:09:05.929Z,12.90
2017-10-20T08:11:34.411Z,12.90
2017-10-20T08:14:01.900Z,13.00
2017-10-20T08:16:29.400Z,13.00
2017-10-20T08:18:56.905Z,13.10
2017-10-20T08:21:24.395Z,13.20
2017-10-20T08:23:53.210Z,13.30
2017-10-20T08:26:20.728Z,13.30
2017-10-20T08:28:49.131Z,13.30
2017-10-20T08:31:16.628Z,13.40
2017-10-20T08:33:44.151Z,13.50
2017-10-20T08:36:11.642Z,13.50
2017-10-20T08:38:39.171Z,13.50
2017-10-20T08:41:06.671Z,13.60
2017-10-20T08:43:34.185Z,13.60
2017-10-20T08:46:01.688Z,13.60
2017-10-20T08:48:30.138Z,13.60
2017-10-20T08:50:57.624Z,13.60
2017-10-20T08:53:27.079Z,13.70
2017-10-20T08:55:54.602Z,13.60
2017-10-20T08:58:22.096Z,13.70
2017-10-20T09:00:50.549Z,13.70
2017-10-20T09:03:18.060Z,13.80
2017-10-20T09:05:46.513Z,13.80
2017-10-20T09:08:14.023Z,13.70
2017-10-20T09:10:41.520Z,13.70
2017-10-20T09:13:09.407Z,13.70
2017-10-20T09:15:36.920Z,13.70
2017-10-20T09:18:04.403Z,13.80
2017-10-20T09:20:32.318Z,13.80
2017-10-20T09:22:59.812Z,13.80
2017-10-20T09:25:27.291Z,13.90
2017-10-20T09:27:54.807Z,13.90
2017-10-20T09:30:22.287Z,14.10
2017-10-20T09:32:49.795Z,14.10
2017-10-20T09:35:17.292Z,14.10
2017-10-20T09:37:44.797Z,14.10
2017-10-20T09:40:12.288Z,14.10
2017-10-20T09:42:39.790Z,14.10
2017-10-20T09:45:09.296Z,14.10
2017-10-20T09:47:37.199Z,14.10
2017-10-20T09:50:04.695Z,14.10
2017-10-20T09:52:32.223Z,14.10
2017-10-20T09:54:59.719Z,14.30
2017-10-20T09:57:28.192Z,14.50
2017-10-20T09:59:55.684Z,14.70
2017-10-20T10:02:23.595Z,14.80
2017-10-20T10:04:51.083Z,14.80
2017-10-20T10:07:18.565Z,14.90
2017-10-20T10:09:46.472Z,14.90
2017-10-20T10:12:13.953Z,14.90
2017-10-20T10:14:41.459Z,15.10
2017-10-20T10:17:08.949Z,15.20
2017-10-20T10:19:36.447Z,15.40
2017-10-20T10:22:03.955Z,15.70
2017-10-20T10:24:31.447Z,15.80
2017-10-20T10:26:58.945Z,16.00
2017-10-20T10:29:26.847Z,16.00
2017-10-20T10:31:54.331Z,16.00
2017-10-20T10:34:21.850Z,16.00
2017-10-20T10:36:49.342Z,16.00
2017-10-20T10:39:16.856Z,15.90
2017-10-20T10:41:44.363Z,15.90
2017-10-20T10:44:11.846Z,15.90
2017-10-20T10:46:39.745Z,15.90
2017-10-20T10:49:07.241Z,15.90
2017-10-20T10:51:35.704Z,15.80
2017-10-20T10:54:03.186Z,15.90
2017-10-20T10:56:30.709Z,15.90
2017-10-20T10:58:58.195Z,15.90
2017-10-20T11:01:26.502Z,15.90
2017-10-20T11:03:55.279Z,15.90
2017-10-20T11:06:34.720Z,15.90
2017-10-20T11:09:14.201Z,15.90
2017-10-20T11:11:53.637Z,15.90
2017-10-20T11:14:21.121Z,15.90
2017-10-20T11:16:48.603Z,15.90
2017-10-20T11:19:16.115Z,16.00
2017-10-20T11:21:43.598Z,16.00
2017-10-20T11:24:11.103Z,16.10
2017-10-20T11:26:38.983Z,16.00
2017-10-20T11:29:06.501Z,16.00
2017-10-20T11:31:33.987Z,16.00
2017-10-20T11:34:03.820Z,15.70
2017-10-20T11:36:31.296Z,15.70
2017-10-20T11:38:58.780Z,15.50
2017-10-20T11:41:26.303Z,15.40
2017-10-20T11:43:53.806Z,15.40
2017-10-20T11:46:21.327Z,15.30
2017-10-20T11:48:48.835Z,15.20
2017-10-20T11:51:17.331Z,15.20
2017-10-20T11:53:45.229Z,15.10
2017-10-20T11:56:12.707Z,15.10
2017-10-20T11:58:42.164Z,15.10
2017-10-20T12:01:10.982Z,15.00
2017-10-20T12:03:38.496Z,15.00
2017-10-20T12:06:06.393Z,15.00
2017-10-20T12:08:33.898Z,15.00
2017-10-20T12:11:01.378Z,15.00
2017-10-20T12:13:29.275Z,15.10
2017-10-20T12:15:56.755Z,15.10
2017-10-20T12:18:26.176Z,14.90
2017-10-20T12:20:53.664Z,14.70
2017-10-20T12:23:21.558Z,14.30
2017-10-20T12:25:49.040Z,14.30
2017-10-20T12:28:16.519Z,14.10
2017-10-20T12:30:44.025Z,14.00
2017-10-20T12:33:11.513Z,13.90
2017-10-20T12:35:39.021Z,13.60
2017-10-20T12:38:06.903Z,13.70
2017-10-20T12:40:34.383Z,13.70
2017-10-20T12:43:01.899Z,13.80
2017-10-20T12:45:29.791Z,13.80
2017-10-20T12:47:57.308Z,13.80
2017-10-20T12:50:24.799Z,13.70
2017-10-20T12:52:52.300Z,13.80
2017-10-20T12:55:19.804Z,13.80
2017-10-20T12:57:47.691Z,13.70
2017-10-20T13:00:15.207Z,13.70
2017-10-20T13:02:42.695Z,13.80
2017-10-20T13:05:10.571Z,13.60
2017-10-20T13:07:38.087Z,13.70
2017-10-20T13:10:05.584Z,13.70
2017-10-20T13:12:33.105Z,13.70
2017-10-20T13:15:00.591Z,13.80
2017-10-20T13:17:28.488Z,14.00
2017-10-20T13:19:55.978Z,14.10
2017-10-20T13:22:23.479Z,14.00
2017-10-20T13:24:52.312Z,14.10
2017-10-20T13:27:19.823Z,14.10
2017-10-20T13:29:47.715Z,14.30
2017-10-20T13:32:15.211Z,14.30
2017-10-20T13:34:42.716Z,14.40
2017-10-20T13:37:10.611Z,14.20
2017-10-20T13:39:38.140Z,14.20
2017-10-20T13:42:06.582Z,14.10
2017-10-20T13:44:34.083Z,14.10
2017-10-20T13:47:01.600Z,14.10
2017-10-20T13:49:29.083Z,14.10
2017-10-20T13:51:57.003Z,14.30
2017-10-20T13:54:24.507Z,14.30
2017-10-20T13:56:52.420Z,14.60
2017-10-20T13:59:19.923Z,14.60
2017-10-20T14:01:47.408Z,14.70
2017-10-20T14:04:15.301Z,14.70
2017-10-20T14:06:42.828Z,14.70
2017-10-20T14:09:10.316Z,14.80
2017-10-20T14:11:37.837Z,14.80
2017-10-20T14:14:05.724Z,14.90
2017-10-20T14:16:33.236Z,14.90
2017-10-20T14:19:00.720Z,14.90
2017-10-20T14:21:28.599Z,15.00
2017-10-20T14:23:56.496Z,15.10
2017-10-20T14:26:24.011Z,15.10
2017-10-20T14:28:51.914Z,15.10
2017-10-20T14:31:20.353Z,15.10
2017-10-20T14:33:48.063Z,15.00
2017-10-20T14:36:15.737Z,15.10
2017-10-20T14:38:43.239Z,15.10
2017-10-20T14:41:10.743Z,15.10
2017-10-20T14:43:38.220Z,15.10
2017-10-20T14:46:05.728Z,15.10
2017-10-20T14:48:33.648Z,15.00
2017-10-20T14:51:01.156Z,15.00
2017-10-20T14:53:29.038Z,15.00
2017-10-20T14:55:56.541Z,15.00
2017-10-20T14:58:24.035Z,15.00
2017-10-20T15:00:51.935Z,14.90
2017-10-20T15:03:19.419Z,14.90
2017-10-20T15:05:46.927Z,14.90
2017-10-20T15:08:14.429Z,14.90
2017-10-20T15:10:41.935Z,14.90
2017-10-20T15:13:09.819Z,14.80
2017-10-20T15:15:37.344Z,14.90
2017-10-20T15:18:05.252Z,14.70
2017-10-20T15:20:32.744Z,14.70
2017-10-20T15:23:00.239Z,14.70
2017-10-20T15:25:30.092Z,14.60
2017-10-20T15:27:57.580Z,14.60
2017-10-20T15:30:25.089Z,14.50
2017-10-20T15:32:53.555Z,14.50
2017-10-20T15:35:21.048Z,14.40
2017-10-20T15:37:48.555Z,14.40
2017-10-20T15:40:16.036Z,14.30
2017-10-20T15:42:43.544Z,14.20
2017-10-20T15:45:11.035Z,14.20
2017-10-20T15:47:38.995Z,14.00
2017-10-20T15:50:06.520Z,14.00
2017-10-20T15:52:34.075Z,13.90
2017-10-20T15:55:01.589Z,13.90
2017-10-20T15:57:29.519Z,13.70
2017-10-20T15:59:57.977Z,13.70
2017-10-20T16:02:25.512Z,13.60
2017-10-20T16:04:53.025Z,13.60
2017-10-20T16:07:20.553Z,13.60
2017-10-20T16:09:48.063Z,13.50
2017-10-20T16:12:16.001Z,13.40
2017-10-20T16:14:43.501Z,13.40
2017-10-20T16:17:11.401Z,13.40
2017-10-20T16:19:38.941Z,13.30
2017-10-20T16:22:07.438Z,13.30
2017-10-20T16:24:34.968Z,13.20
2017-10-20T16:27:02.501Z,13.20
2017-10-20T16:29:30.030Z,13.20
2017-10-20T16:31:57.552Z,13.10
2017-10-20T16:34:25.999Z,13.00
2017-10-20T16:36:54.852Z,12.80
2017-10-20T16:39:22.379Z,12.90
2017-10-20T16:41:49.915Z,12.80
2017-10-20T16:44:17.832Z,12.70
2017-10-20T16:46:45.333Z,12.70
2017-10-20T16:49:12.858Z,12.70
2017-10-20T16:51:40.388Z,12.70
2017-10-20T16:54:07.892Z,12.60
2017-10-20T16:56:37.348Z,12.60
2017-10-20T16:59:04.847Z,12.50
2017-10-20T17:01:32.360Z,12.50
2017-10-20T17:03:59.863Z,12.50
2017-10-20T17:06:29.327Z,12.40
2017-10-20T17:08:56.858Z,12.30
2017-10-20T17:11:24.782Z,12.20
2017-10-20T17:13:52.289Z,12.30
2017-10-20T17:16:20.215Z,12.10
2017-10-20T17:18:48.639Z,12.10
2017-10-20T17:21:16.548Z,12.00
2017-10-20T17:23:44.032Z,12.00
2017-10-20T17:26:11.532Z,12.00
2017-10-20T17:28:39.987Z,12.00
2017-10-20T17:31:07.513Z,11.90
2017-10-20T17:33:35.908Z,11.80
2017-10-20T17:36:03.423Z,11.70
2017-10-20T17:38:31.875Z,11.70
2017-10-20T17:40:59.800Z,11.60
2017-10-20T17:43:27.288Z,11.60
2017-10-20T17:45:56.759Z,11.60
2017-10-20T17:48:24.254Z,11.60
2017-10-20T17:50:52.171Z,11.50
2017-10-20T17:53:19.648Z,11.50
2017-10-20T17:55:47.164Z,11.50
2017-10-20T17:58:14.657Z,11.50
2017-10-20T18:00:42.180Z,11.50
2017-10-20T18:03:10.677Z,11.60
2017-10-20T18:05:38.203Z,11.60
2017-10-20T18:08:07.074Z,11.70
2017-10-20T18:10:34.579Z,11.70
2017-10-20T18:13:02.075Z,11.80
2017-10-20T18:15:31.536Z,11.70
2017-10-20T18:17:59.042Z,11.60
2017-10-20T18:20:26.539Z,11.50
2017-10-20T18:22:54.444Z,11.40
2017-10-20T18:25:21.954Z,11.40
2017-10-20T18:27:49.843Z,11.20
2017-10-20T18:30:18.355Z,11.20
2017-10-20T18:32:45.843Z,11.10
2017-10-20T18:35:13.332Z,11.00
2017-10-20T18:37:41.256Z,10.90
2017-10-20T18:40:08.764Z,10.90
2017-10-20T18:42:36.272Z,10.90
2017-10-20T18:45:03.755Z,10.80
2017-10-20T18:47:31.287Z,10.70
2017-10-20T18:49:58.801Z,10.70
2017-10-20T18:52:26.305Z,10.60
2017-10-20T18:54:54.111Z,10.60
2017-10-20T18:57:22.020Z,10.50
2017-10-20T18:59:49.507Z,10.50
2017-10-20T19:02:17.004Z,10.40
2017-10-20T19:04:44.499Z,10.40
2017-10-20T19:07:12.045Z,10.40
2017-10-20T19:09:39.527Z,10.40
2017-10-20T19:12:07.015Z,10.50
2017-10-20T19:14:34.924Z,10.40
2017-10-20T19:17:02.436Z,10.40
2017-10-20T19:19:29.949Z,10.40
2017-10-20T19:21:58.383Z,10.50
2017-10-20T19:24:26.275Z,10.50
2017-10-20T19:26:55.775Z,10.60
2017-10-20T19:29:23.267Z,10.50
2017-10-20T19:31:50.778Z,10.40
2017-10-20T19:34:18.742Z,10.20
2017-10-20T19:36:46.636Z,10.20
2017-10-20T19:39:15.129Z,10.30
2017-10-20T19:41:42.631Z,10.20
2017-10-20T19:44:12.120Z,10.20
2017-10-20T19:46:40.532Z,10.30
2017-10-20T19:49:08.424Z,10.20
2017-10-20T19:51:35.975Z,10.20
2017-10-20T19:54:04.431Z,10.20
2017-10-20T19:56:32.361Z,10.20
2017-10-20T19:59:00.791Z,10.20
2017-10-20T20:01:28.699Z,10.20
2017-10-20T20:03:56.231Z,10.20
2017-10-20T20:06:23.753Z,10.10
2017-10-20T20:08:51.677Z,10.10
2017-10-20T20:11:19.187Z,10.10
2017-10-20T20:13:47.614Z,10.00
2017-10-20T20:16:15.112Z,9.90
2017-10-20T20:18:42.592Z,9.90
2017-10-20T20:21:10.480Z,9.90
2017-10-20T20:23:38.699Z,9.90
2017-10-20T20:26:06.192Z,10.00
2017-10-20T20:28:33.911Z,9.90
2017-10-20T20:31:01.418Z,9.80
2017-10-20T20:33:44.980Z,9.80
2017-10-20T20:36:12.522Z,9.80
2017-10-20T20:38:40.403Z,9.80
2017-10-20T20:41:07.908Z,9.80
2017-10-20T20:43:35.411Z,9.90
2017-10-20T20:46:03.297Z,9.80
2017-10-20T20:48:31.513Z,9.80
2017-10-20T20:50:59.903Z,9.80
2017-10-20T20:53:27.385Z,9.80
2017-10-20T20:55:55.296Z,9.80
2017-10-20T20:58:23.060Z,9.80
2017-10-20T21:00:50.912Z,9.70
2017-10-20T21:03:18.403Z,9.80
2017-10-20T21:05:46.813Z,9.90
2017-10-20T21:08:14.700Z,9.80
2017-10-20T21:10:42.207Z,9.80
2017-10-20T21:13:09.727Z,9.80
2017-10-20T21:15:37.215Z,9.80
2017-10-20T21:18:05.659Z,9.70
2017-10-20T21:20:33.177Z,9.70
2017-10-20T21:23:00.664Z,9.60
2017-10-20T21:25:28.902Z,9.50
2017-10-20T21:27:56.404Z,9.40
2017-10-20T21:30:23.888Z,9.30
2017-10-20T21:32:52.217Z,9.30
2017-10-20T21:35:20.517Z,9.30
2017-10-20T21:37:48.942Z,9.30
2017-10-20T21:40:17.347Z,9.30
2017-10-20T21:42:45.261Z,9.20
2017-10-20T21:45:12.747Z,9.20
2017-10-20T21:47:41.036Z,9.10
2017-10-20T21:50:08.829Z,9.10
2017-10-20T21:52:36.705Z,9.10
2017-10-20T21:55:04.259Z,9.10
2017-10-20T21:57:32.913Z,9.20
2017-10-20T22:00:02.364Z,9.20
2017-10-20T22:02:29.842Z,9.20
2017-10-20T22:04:57.671Z,9.00
2017-10-20T22:07:27.490Z,8.90
2017-10-20T22:09:54.972Z,8.90
2017-10-20T22:12:22.450Z,8.90
2017-10-20T22:14:50.122Z,8.80
2017-10-20T22:17:18.567Z,9.00
2017-10-20T22:19:46.065Z,9.00
2017-10-20T22:22:14.530Z,8.90
2017-10-20T22:24:42.985Z,8.80
2017-10-20T22:27:10.487Z,8.70
2017-10-20T22:29:37.972Z,8.60
2017-10-20T22:32:07.262Z,8.30
2017-10-20T22:34:35.138Z,8.20
2017-10-20T22:37:03.140Z,8.10
2017-10-20T22:39:30.630Z,8.10
2017-10-20T22:41:58.119Z,8.10
2017-10-20T22:44:25.989Z,8.00
2017-10-20T22:46:53.897Z,8.00
2017-10-20T22:49:22.271Z,8.00
2017-10-20T22:51:51.707Z,8.00
2017-10-20T22:54:19.195Z,8.10
2017-10-20T22:56:47.133Z,8.00
2017-10-20T22:59:14.649Z,8.00
2017-10-20T23:01:42.172Z,8.00
2017-10-20T23:04:10.102Z,8.00
2017-10-20T23:06:37.595Z,8.00
2017-10-20T23:09:08.282Z,7.90
2017-10-20T23:11:35.797Z,7.90
2017-10-20T23:14:03.724Z,7.80
2017-10-20T23:16:31.266Z,7.80
2017-10-20T23:18:58.772Z,7.70
2017-10-20T23:21:26.261Z,7.70
2017-10-20T23:23:53.748Z,7.70
2017-10-20T23:26:21.242Z,7.60
2017-10-20T23:28:48.735Z,7.50
2017-10-20T23:31:16.232Z,7.50
2017-10-20T23:33:43.706Z,7.50
2017-10-20T23:36:12.109Z,7.50
2017-10-20T23:38:40.020Z,7.50
2017-10-20T23:41:07.499Z,7.50
2017-10-20T23:43:35.019Z,7.40
2017-10-20T23:46:02.492Z,7.50
2017-10-20T23:48:29.975Z,7.50
2017-10-20T23:50:59.424Z,7.60
2017-10-20T23:53:28.205Z,7.60
2017-10-20T23:55:56.103Z,7.60
2017-10-20T23:58:23.589Z,7.60
